createdAt,value
2023-04-18T00:01:25.528Z,8.19
2023-04-18T00:03:53.418Z,8.21
2023-04-18T00:06:22.209Z,8.22
2023-04-18T00:08:50.031Z,8.25
2023-04-18T00:11:17.928Z,8.28
2023-04-18T00:13:47.355Z,8.20
2023-04-18T00:16:15.701Z,8.22
2023-04-18T00:18:43.507Z,8.18
2023-04-18T00:21:11.531Z,8.21
2023-04-18T00:23:39.805Z,8.17
2023-04-18T00:26:07.628Z,8.30
2023-04-18T00:28:35.431Z,8.25
2023-04-18T00:31:03.386Z,8.14
2023-04-18T00:33:34.373Z,8.13
2023-04-18T00:36:02.243Z,8.19
2023-04-18T00:38:30.078Z,8.29
2023-04-18T00:40:57.938Z,8.24
2023-04-18T00:43:26.712Z,8.15
2023-04-18T00:45:54.587Z,8.17
2023-04-18T00:48:23.298Z,8.15
2023-04-18T00:50:51.102Z,8.14
2023-04-18T00:53:18.981Z,8.09
2023-04-18T00:55:47.299Z,8.08
2023-04-18T00:58:16.548Z,8.09
2023-04-18T01:00:44.393Z,8.09
2023-04-18T01:03:14.517Z,8.13
2023-04-18T01:05:42.623Z,8.06
2023-04-18T01:08:11.599Z,8.07
2023-04-18T01:10:39.467Z,8.12
2023-04-18T01:13:19.380Z,8.06
2023-04-18T01:15:49.931Z,8.05
2023-04-18T01:18:18.394Z,8.07
2023-04-18T01:20:49.676Z,8.05
2023-04-18T01:23:19.306Z,8.06
2023-04-18T01:25:51.556Z,8.10
2023-04-18T01:28:22.732Z,8.09
2023-04-18T01:30:50.876Z,8.10
2023-04-18T01:33:18.641Z,8.07
2023-04-18T01:35:48.203Z,8.02
2023-04-18T01:38:15.974Z,8.04
2023-04-18T01:40:44.096Z,8.12
2023-04-18T01:43:11.914Z,8.10
2023-04-18T01:45:39.751Z,8.13
2023-04-18T01:48:09.849Z,8.18
2023-04-18T01:50:37.703Z,8.16
2023-04-18T01:53:05.541Z,8.17
2023-04-18T01:55:33.288Z,8.19
2023-04-18T01:58:01.089Z,8.24
2023-04-18T02:00:29.092Z,8.25
2023-04-18T02:02:59.376Z,8.17
2023-04-18T02:05:27.421Z,8.13
2023-04-18T02:07:55.240Z,8.16
2023-04-18T02:10:23.992Z,8.23
2023-04-18T02:12:51.761Z,8.14
2023-04-18T02:15:19.716Z,8.15
2023-04-18T02:17:49.017Z,8.14
2023-04-18T02:20:16.858Z,8.12
2023-04-18T02:22:44.679Z,8.12
2023-04-18T02:25:12.515Z,8.09
2023-04-18T02:27:40.329Z,8.08
2023-04-18T02:30:08.954Z,8.09
2023-04-18T02:32:36.900Z,7.97
2023-04-18T02:35:05.333Z,8.03
2023-04-18T02:37:33.157Z,7.97
2023-04-18T02:40:00.982Z,7.96
2023-04-18T02:42:31.476Z,7.98
2023-04-18T02:44:59.252Z,8.05
2023-04-18T02:47:29.489Z,8.08
2023-04-18T02:49:58.888Z,8.05
2023-04-18T02:52:27.860Z,8.05
2023-04-18T02:54:55.768Z,8.06
2023-04-18T02:57:26.542Z,8.10
2023-04-18T02:59:59.936Z,8.11
2023-04-18T03:02:27.831Z,8.09
2023-04-18T03:04:58.087Z,8.00
2023-04-18T03:07:26.416Z,7.99
2023-04-18T03:09:54.558Z,8.10
2023-04-18T03:12:25.737Z,8.04
2023-04-18T03:14:53.546Z,8.04
2023-04-18T03:17:21.886Z,8.12
2023-04-18T03:19:50.146Z,8.09
2023-04-18T03:22:20.222Z,8.11
2023-04-18T03:24:59.906Z,8.21
2023-04-18T03:27:50.521Z,8.12
2023-04-18T03:30:20.830Z,8.10
2023-04-18T03:32:53.691Z,8.10
2023-04-18T03:35:21.846Z,8.06
2023-04-18T03:37:50.420Z,8.10
2023-04-18T03:40:26.081Z,8.09
2023-04-18T03:42:55.992Z,8.09
2023-04-18T03:45:23.738Z,8.09
2023-04-18T03:47:51.621Z,8.12
2023-04-18T03:50:19.914Z,8.08
2023-04-18T03:52:50.604Z,8.06
2023-04-18T03:55:22.151Z,8.06
2023-04-18T03:57:49.968Z,8.04
2023-04-18T04:00:25.936Z,8.20
2023-04-18T04:02:59.467Z,8.16
2023-04-18T04:05:28.032Z,8.19
2023-04-18T04:07:56.427Z,8.19
2023-04-18T04:10:24.586Z,8.27
2023-04-18T04:12:52.679Z,8.22
2023-04-18T04:15:20.924Z,8.24
2023-04-18T04:18:03.455Z,8.25
2023-04-18T04:20:32.758Z,8.34
2023-04-18T04:23:07.613Z,8.25
2023-04-18T04:25:36.480Z,8.24
2023-04-18T04:28:08.131Z,8.23
2023-04-18T04:30:43.944Z,8.22
2023-04-18T04:33:12.284Z,8.29
2023-04-18T04:35:41.744Z,8.34
2023-04-18T04:38:09.678Z,8.44
2023-04-18T04:40:44.233Z,8.54
2023-04-18T04:43:15.329Z,8.66
2023-04-18T04:45:44.501Z,8.55
2023-04-18T04:48:13.224Z,8.52
2023-04-18T04:50:52.094Z,8.58
2023-04-18T04:53:20.505Z,8.67
2023-04-18T04:55:49.081Z,8.56
2023-04-18T04:58:18.629Z,8.51
2023-04-18T05:01:07.529Z,8.44
2023-04-18T05:03:36.499Z,8.42
2023-04-18T05:06:05.388Z,8.35
2023-04-18T05:08:33.198Z,8.49
2023-04-18T05:11:02.214Z,8.55
2023-04-18T05:13:30.078Z,8.64
2023-04-18T05:15:59.315Z,8.55
2023-04-18T05:18:27.128Z,8.51
2023-04-18T05:20:55.835Z,8.67
2023-04-18T05:23:23.818Z,8.74
2023-04-18T05:25:52.211Z,8.67
2023-04-18T05:28:19.995Z,8.71
2023-04-18T05:30:47.915Z,8.66
2023-04-18T05:33:15.925Z,8.71
2023-04-18T05:35:43.880Z,8.75
2023-04-18T05:38:11.812Z,8.86
2023-04-18T05:40:39.590Z,8.92
2023-04-18T05:43:07.392Z,9.05
2023-04-18T05:45:35.353Z,9.02
2023-04-18T05:48:03.374Z,9.07
2023-04-18T05:50:31.134Z,9.08
2023-04-18T05:53:01.204Z,9.24
2023-04-18T05:55:29.079Z,9.30
2023-04-18T05:57:56.825Z,9.33
2023-04-18T06:00:28.038Z,9.43
2023-04-18T06:02:56.397Z,9.53
2023-04-18T06:05:24.833Z,9.56
2023-04-18T06:07:52.857Z,9.71
2023-04-18T06:10:20.943Z,9.95
2023-04-18T06:12:48.873Z,10.09
2023-04-18T06:15:16.813Z,10.19
2023-04-18T06:17:44.738Z,10.40
2023-04-18T06:20:13.051Z,10.31
2023-04-18T06:22:40.863Z,10.36
2023-04-18T06:25:10.072Z,10.67
2023-04-18T06:27:38.204Z,10.73
2023-04-18T06:30:07.833Z,11.04
2023-04-18T06:32:35.777Z,10.98
2023-04-18T06:35:04.001Z,11.02
2023-04-18T06:37:31.866Z,10.87
2023-04-18T06:39:59.740Z,10.85
2023-04-18T06:42:27.662Z,11.12
2023-04-18T06:44:55.789Z,11.04
2023-04-18T06:47:23.904Z,11.17
2023-04-18T06:49:51.722Z,11.08
2023-04-18T06:52:19.527Z,11.30
2023-04-18T06:54:47.400Z,11.20
2023-04-18T06:57:15.839Z,11.45
2023-04-18T06:59:43.602Z,11.50
2023-04-18T07:02:11.534Z,11.63
2023-04-18T07:04:39.597Z,11.28
2023-04-18T07:07:07.506Z,11.02
2023-04-18T07:09:35.365Z,11.41
2023-04-18T07:12:03.550Z,11.72
2023-04-18T07:14:33.556Z,11.72
2023-04-18T07:17:03.617Z,11.42
2023-04-18T07:19:31.855Z,11.76
2023-04-18T07:22:01.715Z,11.28
2023-04-18T07:24:32.283Z,11.31
2023-04-18T07:27:01.343Z,11.80
2023-04-18T07:29:29.598Z,12.08
2023-04-18T07:31:58.896Z,11.58
2023-04-18T07:34:29.766Z,11.82
2023-04-18T07:36:58.422Z,12.35
2023-04-18T07:39:26.496Z,12.09
2023-04-18T07:41:54.805Z,11.99
2023-04-18T07:44:25.202Z,11.91
2023-04-18T07:46:53.270Z,12.44
2023-04-18T07:49:21.121Z,12.56
2023-04-18T07:51:48.897Z,12.42
2023-04-18T07:54:17.766Z,12.41
2023-04-18T07:56:45.689Z,12.59
2023-04-18T07:59:16.049Z,12.61
2023-04-18T08:01:44.384Z,12.64
2023-04-18T08:04:13.122Z,12.41
2023-04-18T08:06:41.439Z,12.70
2023-04-18T08:09:09.351Z,12.49
2023-04-18T08:11:38.855Z,12.43
2023-04-18T08:14:06.769Z,12.76
2023-04-18T08:16:36.856Z,12.47
2023-04-18T08:19:06.136Z,12.32
2023-04-18T08:21:33.961Z,12.79
2023-04-18T08:24:01.729Z,12.84
2023-04-18T08:26:29.560Z,12.99
2023-04-18T08:28:58.512Z,13.08
2023-04-18T08:31:27.456Z,13.02
2023-04-18T08:33:56.256Z,13.20
2023-04-18T08:36:24.863Z,13.28
2023-04-18T08:38:52.647Z,12.87
2023-04-18T08:41:24.807Z,12.95
2023-04-18T08:43:53.438Z,13.40
2023-04-18T08:46:25.406Z,13.87
2023-04-18T08:48:53.760Z,13.84
2023-04-18T08:51:21.677Z,13.75
2023-04-18T08:53:50.627Z,14.03
2023-04-18T08:56:22.248Z,14.35
2023-04-18T08:58:50.522Z,14.41
2023-04-18T09:01:18.419Z,14.61
2023-04-18T09:03:46.312Z,14.89
2023-04-18T09:06:20.804Z,14.58
2023-04-18T09:09:05.817Z,14.77
2023-04-18T09:11:36.680Z,14.97
2023-04-18T09:14:04.574Z,14.98
2023-04-18T09:16:50.407Z,15.00
2023-04-18T09:19:21.651Z,14.87
2023-04-18T09:22:02.612Z,15.25
2023-04-18T09:24:32.072Z,15.28
2023-04-18T09:27:01.300Z,15.29
2023-04-18T09:29:49.227Z,15.56
2023-04-18T09:32:31.639Z,15.59
2023-04-18T09:35:05.413Z,15.59
2023-04-18T09:37:36.881Z,14.54
2023-04-18T09:40:20.625Z,14.44
2023-04-18T09:42:48.669Z,14.98
2023-04-18T09:45:16.537Z,14.69
2023-04-18T09:47:45.049Z,14.52
2023-04-18T09:50:13.174Z,14.47
2023-04-18T09:52:43.278Z,14.91
2023-04-18T09:55:15.601Z,14.89
2023-04-18T09:57:48.638Z,14.60
2023-04-18T10:00:26.587Z,15.01
2023-04-18T10:02:57.756Z,14.83
2023-04-18T10:05:30.766Z,14.88
2023-04-18T10:08:01.113Z,15.36
2023-04-18T10:10:31.601Z,15.41
2023-04-18T10:13:02.876Z,15.69
2023-04-18T10:15:31.903Z,15.09
2023-04-18T10:18:06.936Z,13.99
2023-04-18T10:20:35.677Z,14.44
2023-04-18T10:23:35.097Z,15.00
2023-04-18T10:26:05.550Z,14.78
2023-04-18T10:29:11.128Z,14.46
2023-04-18T10:31:41.154Z,14.41
2023-04-18T10:34:09.518Z,14.62
2023-04-18T10:36:37.396Z,15.08
2023-04-18T10:39:22.889Z,15.82
2023-04-18T10:41:51.666Z,15.83
2023-04-18T10:44:22.746Z,15.54
2023-04-18T10:46:51.180Z,15.58
2023-04-18T10:49:30.282Z,15.79
2023-04-18T10:52:03.191Z,15.80
2023-04-18T10:54:41.842Z,15.17
2023-04-18T10:57:11.254Z,14.97
2023-04-18T10:59:43.300Z,14.97
2023-04-18T11:02:27.096Z,15.32
2023-04-18T11:04:57.836Z,16.38
2023-04-18T11:07:46.009Z,15.68
2023-04-18T11:10:19.054Z,15.23
2023-04-18T11:12:47.986Z,15.11
2023-04-18T11:15:24.425Z,15.00
2023-04-18T11:18:03.355Z,15.13
2023-04-18T11:20:50.683Z,15.77
2023-04-18T11:23:22.874Z,15.91
2023-04-18T11:25:54.377Z,15.67
2023-04-18T11:28:24.774Z,15.16
2023-04-18T11:30:59.065Z,14.86
2023-04-18T11:33:29.155Z,14.97
2023-04-18T11:36:01.493Z,14.38
2023-04-18T11:38:33.797Z,14.40
2023-04-18T11:41:04.560Z,14.45
2023-04-18T11:43:32.416Z,14.15
2023-04-18T11:46:00.596Z,14.10
2023-04-18T11:48:37.611Z,14.34
2023-04-18T11:51:07.908Z,14.22
2023-04-18T11:53:38.751Z,14.52
2023-04-18T11:56:07.507Z,14.84
2023-04-18T11:58:36.636Z,15.13
2023-04-18T12:01:25.656Z,14.99
2023-04-18T12:04:05.806Z,14.71
2023-04-18T12:06:54.328Z,14.65
2023-04-18T12:09:24.978Z,14.63
2023-04-18T12:12:02.674Z,14.57
2023-04-18T12:14:30.729Z,14.99
2023-04-18T12:16:58.766Z,15.05
2023-04-18T12:19:28.133Z,14.76
2023-04-18T12:22:06.937Z,15.10
2023-04-18T12:24:35.975Z,15.21
2023-04-18T12:27:03.871Z,15.13
2023-04-18T12:29:31.674Z,15.87
2023-04-18T12:31:59.522Z,16.45
2023-04-18T12:34:28.919Z,16.71
2023-04-18T12:36:56.963Z,17.16
2023-04-18T12:39:26.016Z,16.48
2023-04-18T12:41:53.832Z,16.66
2023-04-18T12:44:22.606Z,17.04
2023-04-18T12:46:50.921Z,16.32
2023-04-18T12:49:18.798Z,16.11
2023-04-18T12:51:46.584Z,15.99
2023-04-18T12:54:14.754Z,16.00
2023-04-18T12:56:42.715Z,15.97
2023-04-18T12:59:10.554Z,16.15
2023-04-18T13:01:38.345Z,15.90
2023-04-18T13:04:12.550Z,16.00
2023-04-18T13:06:41.404Z,16.25
2023-04-18T13:09:10.315Z,16.26
2023-04-18T13:11:38.092Z,15.89
2023-04-18T13:14:05.942Z,15.70
2023-04-18T13:16:33.831Z,15.94
2023-04-18T13:19:01.687Z,15.89
2023-04-18T13:21:29.470Z,15.83
2023-04-18T13:23:57.307Z,16.36
2023-04-18T13:26:25.713Z,16.69
2023-04-18T13:28:53.554Z,16.96
2023-04-18T13:31:21.555Z,17.06
2023-04-18T13:33:49.379Z,16.80
2023-04-18T13:36:18.014Z,17.14
2023-04-18T13:38:46.469Z,17.28
2023-04-18T13:41:14.263Z,17.91
2023-04-18T13:43:42.136Z,17.08
2023-04-18T13:46:15.154Z,17.15
2023-04-18T13:48:42.987Z,16.89
2023-04-18T13:51:10.791Z,16.66
2023-04-18T13:53:38.835Z,17.19
2023-04-18T13:56:07.521Z,16.85
2023-04-18T13:58:35.736Z,16.71
2023-04-18T14:01:03.606Z,16.52
2023-04-18T14:03:31.911Z,15.94
2023-04-18T14:06:00.469Z,16.28
2023-04-18T14:08:28.217Z,16.16
2023-04-18T14:10:56.221Z,16.23
2023-04-18T14:13:23.970Z,15.80
2023-04-18T14:15:53.705Z,15.70
2023-04-18T14:18:21.867Z,16.17
2023-04-18T14:20:49.721Z,15.80
2023-04-18T14:23:17.814Z,15.98
2023-04-18T14:25:45.673Z,15.90
2023-04-18T14:28:13.511Z,16.00
2023-04-18T14:30:41.386Z,16.14
2023-04-18T14:33:10.059Z,16.17
2023-04-18T14:35:38.362Z,16.18
2023-04-18T14:38:06.237Z,16.06
2023-04-18T14:40:34.108Z,16.45
2023-04-18T14:43:02.538Z,16.24
2023-04-18T14:45:34.072Z,15.93
2023-04-18T14:48:02.107Z,16.06
2023-04-18T14:50:31.040Z,16.31
2023-04-18T14:52:58.883Z,16.64
2023-04-18T14:55:26.806Z,16.77
2023-04-18T14:57:54.767Z,17.22
2023-04-18T15:00:22.825Z,16.65
2023-04-18T15:02:51.017Z,16.46
2023-04-18T15:05:23.483Z,16.04
2023-04-18T15:07:52.167Z,15.87
2023-04-18T15:10:22.247Z,16.12
2023-04-18T15:12:51.190Z,15.79
2023-04-18T15:15:19.504Z,15.85
2023-04-18T15:17:47.362Z,16.20
2023-04-18T15:20:16.157Z,16.74
2023-04-18T15:22:44.028Z,16.88
2023-04-18T15:25:16.170Z,17.13
2023-04-18T15:27:44.010Z,17.48
2023-04-18T15:30:12.427Z,17.52
2023-04-18T15:35:11.829Z,18.24
2023-04-18T15:37:39.978Z,17.56
2023-04-18T15:40:11.127Z,17.42
2023-04-18T15:42:39.054Z,17.44
2023-04-18T15:45:08.084Z,17.21
2023-04-18T15:47:36.145Z,17.19
2023-04-18T15:50:04.850Z,16.81
2023-04-18T15:52:32.750Z,16.41
2023-04-18T15:55:01.085Z,16.55
2023-04-18T15:57:31.908Z,16.52
2023-04-18T16:00:00.167Z,16.16
2023-04-18T16:02:28.279Z,16.12
2023-04-18T16:04:56.482Z,16.02
2023-04-18T16:07:24.670Z,16.05
2023-04-18T16:09:52.591Z,15.95
2023-04-18T16:12:20.427Z,15.61
2023-04-18T16:14:48.157Z,15.81
2023-04-18T16:17:15.927Z,15.99
2023-04-18T16:19:43.838Z,15.99
2023-04-18T16:22:12.422Z,15.98
2023-04-18T16:24:42.007Z,15.87
2023-04-18T16:27:10.001Z,15.84
2023-04-18T16:29:37.775Z,16.14
2023-04-18T16:32:06.622Z,16.57
2023-04-18T16:34:34.537Z,16.71
2023-04-18T16:37:02.342Z,16.55
2023-04-18T16:39:30.816Z,16.45
2023-04-18T16:41:58.581Z,16.76
2023-04-18T16:44:26.517Z,16.60
2023-04-18T16:46:54.494Z,16.15
2023-04-18T16:49:23.531Z,16.22
2023-04-18T16:51:51.396Z,16.29
2023-04-18T16:54:19.231Z,16.08
2023-04-18T16:56:49.961Z,16.03
2023-04-18T16:59:18.021Z,16.11
2023-04-18T17:01:46.075Z,16.15
2023-04-18T17:04:15.485Z,16.01
2023-04-18T17:06:43.743Z,15.67
2023-04-18T17:09:16.092Z,15.63
2023-04-18T17:11:44.277Z,15.67
2023-04-18T17:14:12.258Z,15.75
2023-04-18T17:16:42.815Z,15.73
2023-04-18T17:19:11.214Z,15.59
2023-04-18T17:21:39.065Z,15.32
2023-04-18T17:24:07.319Z,15.24
2023-04-18T17:26:38.841Z,15.13
2023-04-18T17:29:06.734Z,15.16
2023-04-18T17:31:38.692Z,15.04
2023-04-18T17:34:07.126Z,14.99
2023-04-18T17:36:35.306Z,14.53
2023-04-18T17:39:06.614Z,14.13
2023-04-18T17:41:38.946Z,13.99
2023-04-18T17:44:08.214Z,13.88
2023-04-18T17:46:36.247Z,13.87
2023-04-18T17:49:04.628Z,13.82
2023-04-18T17:51:32.751Z,13.76
2023-04-18T17:54:00.660Z,13.69
2023-04-18T17:56:31.433Z,13.70
2023-04-18T17:59:00.487Z,13.66
2023-04-18T18:01:30.356Z,13.61
2023-04-18T18:03:58.696Z,13.57
2023-04-18T18:06:29.749Z,13.56
2023-04-18T18:08:57.808Z,13.55
2023-04-18T18:11:27.659Z,13.52
2023-04-18T18:13:57.263Z,13.46
2023-04-18T18:16:25.193Z,13.37
2023-04-18T18:18:53.324Z,13.34
2023-04-18T18:21:21.433Z,13.32
2023-04-18T18:23:49.296Z,13.30
2023-04-18T18:26:17.462Z,13.28
2023-04-18T18:28:45.594Z,13.24
2023-04-18T18:31:13.566Z,13.19
2023-04-18T18:33:41.587Z,13.21
2023-04-18T18:36:09.450Z,13.22
2023-04-18T18:38:37.545Z,13.18
2023-04-18T18:41:05.734Z,13.12
2023-04-18T18:43:34.058Z,13.08
2023-04-18T18:46:02.235Z,13.05
2023-04-18T18:48:30.267Z,13.02
2023-04-18T18:50:58.244Z,13.01
2023-04-18T18:53:26.213Z,13.00
2023-04-18T18:55:54.291Z,13.00
2023-04-18T18:58:22.473Z,12.94
2023-04-18T19:00:51.125Z,12.93
2023-04-18T19:03:21.229Z,12.92
2023-04-18T19:05:49.416Z,12.86
2023-04-18T19:08:17.187Z,12.83
2023-04-18T19:10:45.180Z,12.81
2023-04-18T19:13:13.179Z,12.75
2023-04-18T19:15:41.100Z,12.70
2023-04-18T19:18:09.092Z,12.67
2023-04-18T19:20:38.873Z,12.57
2023-04-18T19:23:06.982Z,12.60
2023-04-18T19:25:34.865Z,12.58
2023-04-18T19:28:04.844Z,12.52
2023-04-18T19:30:32.811Z,12.42
2023-04-18T19:33:00.897Z,12.39
2023-04-18T19:35:28.925Z,12.30
2023-04-18T19:38:01.439Z,12.20
2023-04-18T19:40:29.820Z,12.19
2023-04-18T19:42:58.039Z,12.11
2023-04-18T19:45:26.008Z,12.06
2023-04-18T19:47:53.885Z,11.94
2023-04-18T19:50:21.818Z,11.90
2023-04-18T19:52:49.713Z,11.83
2023-04-18T19:55:17.640Z,11.76
2023-04-18T19:57:45.895Z,11.72
2023-04-18T20:00:15.258Z,11.64
2023-04-18T20:02:43.261Z,12.19
2023-04-18T20:05:12.896Z,12.30
2023-04-18T20:07:41.686Z,12.25
2023-04-18T20:10:10.907Z,12.29
2023-04-18T20:12:38.827Z,12.17
2023-04-18T20:15:08.180Z,12.25
2023-04-18T20:17:36.183Z,12.21
2023-04-18T20:20:08.002Z,12.13
2023-04-18T20:22:37.674Z,12.13
2023-04-18T20:25:06.572Z,12.10
2023-04-18T20:27:34.426Z,12.12
2023-04-18T20:30:02.476Z,12.15
2023-04-18T20:32:30.327Z,11.97
2023-04-18T20:34:58.530Z,12.05
2023-04-18T20:37:31.209Z,11.91
2023-04-18T20:40:02.939Z,11.86
2023-04-18T20:42:31.974Z,11.79
2023-04-18T20:45:00.046Z,11.71
2023-04-18T20:47:27.821Z,11.81
2023-04-18T20:49:56.545Z,11.71
2023-04-18T20:52:24.294Z,11.55
2023-04-18T20:54:52.008Z,11.64
2023-04-18T20:57:19.925Z,11.59
2023-04-18T20:59:48.504Z,11.60
2023-04-18T21:02:16.454Z,11.53
2023-04-18T21:04:46.630Z,11.48
2023-04-18T21:07:14.589Z,11.50
2023-04-18T21:09:42.386Z,11.45
2023-04-18T21:12:10.200Z,11.45
2023-04-18T21:14:39.603Z,11.45
2023-04-18T21:17:09.516Z,11.37
2023-04-18T21:19:37.478Z,11.41
2023-04-18T21:22:05.293Z,11.41
2023-04-18T21:24:33.675Z,11.42
2023-04-18T21:27:02.363Z,11.40
2023-04-18T21:29:30.250Z,11.39
2023-04-18T21:31:58.194Z,11.38
2023-04-18T21:34:26.538Z,11.35
2023-04-18T21:36:54.360Z,11.22
2023-04-18T21:39:22.237Z,11.04
2023-04-18T21:41:50.168Z,11.01
2023-04-18T21:44:18.829Z,10.99
2023-04-18T21:46:46.804Z,11.10
2023-04-18T21:49:15.100Z,11.11
2023-04-18T21:51:43.335Z,11.05
2023-04-18T21:54:11.274Z,10.95
2023-04-18T21:56:39.080Z,10.84
2023-04-18T21:59:06.911Z,10.88
2023-04-18T22:01:36.195Z,10.89
2023-04-18T22:04:05.612Z,10.89
2023-04-18T22:06:34.675Z,10.81
2023-04-18T22:09:02.475Z,10.94
2023-04-18T22:11:33.177Z,10.98
2023-04-18T22:14:01.284Z,11.03
2023-04-18T22:16:29.168Z,10.88
2023-04-18T22:18:57.692Z,10.74
2023-04-18T22:21:25.780Z,10.58
2023-04-18T22:23:53.604Z,10.58
2023-04-18T22:26:21.381Z,10.38
2023-04-18T22:28:49.410Z,10.37
2023-04-18T22:31:17.232Z,10.38
2023-04-18T22:33:47.488Z,10.18
2023-04-18T22:36:15.452Z,10.24
2023-04-18T22:38:43.351Z,10.18
2023-04-18T22:41:11.228Z,10.14
2023-04-18T22:43:39.124Z,10.19
2023-04-18T22:46:06.956Z,10.24
2023-04-18T22:48:35.159Z,10.12
2023-04-18T22:51:03.295Z,10.12
2023-04-18T22:53:31.089Z,10.13
2023-04-18T22:55:58.904Z,10.09
2023-04-18T22:58:26.683Z,9.88
2023-04-18T23:00:57.454Z,9.91
2023-04-18T23:03:25.652Z,9.92
2023-04-18T23:05:53.532Z,9.94
2023-04-18T23:08:22.499Z,9.83
2023-04-18T23:10:50.378Z,9.75
2023-04-18T23:13:18.184Z,9.73
2023-04-18T23:15:46.002Z,9.75
2023-04-18T23:18:14.115Z,9.88
2023-04-18T23:20:41.963Z,9.82
2023-04-18T23:23:09.768Z,9.57
2023-04-18T23:25:38.338Z,9.59
2023-04-18T23:28:06.836Z,9.62
2023-04-18T23:30:36.862Z,9.43
2023-04-18T23:33:04.901Z,9.36
2023-04-18T23:35:32.723Z,9.35
2023-04-18T23:38:00.731Z,9.31
2023-04-18T23:40:28.498Z,9.31
2023-04-18T23:42:57.081Z,9.30
2023-04-18T23:45:24.897Z,9.28
2023-04-18T23:47:52.769Z,9.13
2023-04-18T23:50:20.786Z,8.99
2023-04-18T23:52:48.556Z,9.00
2023-04-18T23:55:16.849Z,8.92
2023-04-18T23:57:44.633Z,8.93
